sensor_id;sensor_type;location;lat;lon;timestamp;pressure;altitude;pressure_sealevel;temperature;humidity
44138;BME280;29800;55.942;37.314;2023-07-09T00:01:53;99231.06;;;15.59;73.75
44138;BME280;29800;55.942;37.314;2023-07-09T00:04:20;99241.56;;;15.57;73.67
44138;BME280;29800;55.942;37.314;2023-07-09T00:06:46;99237.47;;;15.55;73.75
44138;BME280;29800;55.942;37.314;2023-07-09T00:09:19;99231.94;;;15.55;74.20
44138;BME280;29800;55.942;37.314;2023-07-09T00:11:47;99238.34;;;15.50;73.97
44138;BME280;29800;55.942;37.314;2023-07-09T00:14:15;99231.16;;;15.49;73.90
44138;BME280;29800;55.942;37.314;2023-07-09T00:16:43;99233.41;;;15.47;74.18
44138;BME280;29800;55.942;37.314;2023-07-09T00:19:21;99228.41;;;15.49;74.16
44138;BME280;29800;55.942;37.314;2023-07-09T00:21:51;99229.06;;;15.41;73.84
44138;BME280;29800;55.942;37.314;2023-07-09T00:24:20;99232.41;;;15.38;74.05
44138;BME280;29800;55.942;37.314;2023-07-09T00:26:46;99231.38;;;15.34;74.34
44138;BME280;29800;55.942;37.314;2023-07-09T00:29:16;99229.72;;;15.33;74.28
44138;BME280;29800;55.942;37.314;2023-07-09T00:31:43;99228.69;;;15.29;74.46
44138;BME280;29800;55.942;37.314;2023-07-09T00:34:15;99232.53;;;15.28;74.34
44138;BME280;29800;55.942;37.314;2023-07-09T00:36:43;99224.03;;;15.24;74.09
44138;BME280;29800;55.942;37.314;2023-07-09T00:39:20;99216.00;;;15.28;74.36
44138;BME280;29800;55.942;37.314;2023-07-09T00:41:49;99221.06;;;15.20;74.14
44138;BME280;29800;55.942;37.314;2023-07-09T00:44:31;99227.91;;;15.23;74.13
44138;BME280;29800;55.942;37.314;2023-07-09T00:49:33;99226.06;;;15.13;74.43
44138;BME280;29800;55.942;37.314;2023-07-09T00:52:07;99217.59;;;15.10;74.17
44138;BME280;29800;55.942;37.314;2023-07-09T00:54:43;99211.31;;;15.04;74.07
44138;BME280;29800;55.942;37.314;2023-07-09T00:57:15;99213.53;;;15.02;74.00
44138;BME280;29800;55.942;37.314;2023-07-09T00:59:53;99215.75;;;15.00;74.12
44138;BME280;29800;55.942;37.314;2023-07-09T01:02:22;99209.78;;;14.93;74.12
44138;BME280;29800;55.942;37.314;2023-07-09T01:04:51;99207.03;;;14.93;74.13
44138;BME280;29800;55.942;37.314;2023-07-09T01:07:20;99198.53;;;14.89;74.29
44138;BME280;29800;55.942;37.314;2023-07-09T01:09:48;99201.03;;;14.85;74.44
44138;BME280;29800;55.942;37.314;2023-07-09T01:12:16;99193.38;;;14.82;74.47
44138;BME280;29800;55.942;37.314;2023-07-09T01:14:45;99197.22;;;14.81;74.84
44138;BME280;29800;55.942;37.314;2023-07-09T01:17:14;99190.34;;;14.79;74.82
44138;BME280;29800;55.942;37.314;2023-07-09T01:19:43;99198.63;;;14.79;74.71
44138;BME280;29800;55.942;37.314;2023-07-09T01:22:12;99188.50;;;14.74;74.66
44138;BME280;29800;55.942;37.314;2023-07-09T01:25:17;99200.50;;;14.83;75.06
44138;BME280;29800;55.942;37.314;2023-07-09T01:27:46;99188.53;;;14.69;74.45
44138;BME280;29800;55.942;37.314;2023-07-09T01:30:32;99183.00;;;14.69;74.87
44138;BME280;29800;55.942;37.314;2023-07-09T01:33:01;99192.97;;;14.65;74.80
44138;BME280;29800;55.942;37.314;2023-07-09T01:35:30;99195.22;;;14.63;75.33
44138;BME280;29800;55.942;37.314;2023-07-09T01:37:57;99189.16;;;14.61;75.29
44138;BME280;29800;55.942;37.314;2023-07-09T01:40:24;99190.00;;;14.61;75.20
44138;BME280;29800;55.942;37.314;2023-07-09T01:42:51;99190.28;;;14.60;75.29
44138;BME280;29800;55.942;37.314;2023-07-09T01:45:18;99187.53;;;14.60;75.13
44138;BME280;29800;55.942;37.314;2023-07-09T01:47:46;99180.88;;;14.61;75.65
44138;BME280;29800;55.942;37.314;2023-07-09T01:50:12;99181.72;;;14.61;75.63
44138;BME280;29800;55.942;37.314;2023-07-09T01:52:40;99191.31;;;14.64;75.76
44138;BME280;29800;55.942;37.314;2023-07-09T01:55:10;99184.72;;;14.65;76.30
44138;BME280;29800;55.942;37.314;2023-07-09T01:57:37;99191.56;;;14.67;76.31
44138;BME280;29800;55.942;37.314;2023-07-09T02:00:11;99189.66;;;14.68;76.25
44138;BME280;29800;55.942;37.314;2023-07-09T02:02:44;99183.00;;;14.69;76.35
44138;BME280;29800;55.942;37.314;2023-07-09T02:05:18;99189.38;;;14.69;76.19
44138;BME280;29800;55.942;37.314;2023-07-09T02:07:46;99185.25;;;14.67;76.17
44138;BME280;29800;55.942;37.314;2023-07-09T02:10:15;99184.44;;;14.66;76.19
44138;BME280;29800;55.942;37.314;2023-07-09T02:12:43;99188.81;;;14.67;76.15
44138;BME280;29800;55.942;37.314;2023-07-09T02:15:11;99181.38;;;14.68;76.54
44138;BME280;29800;55.942;37.314;2023-07-09T02:17:37;99184.94;;;14.68;76.64
44138;BME280;29800;55.942;37.314;2023-07-09T02:20:05;99182.72;;;14.70;76.35
44138;BME280;29800;55.942;37.314;2023-07-09T02:22:34;99173.06;;;14.73;77.04
44138;BME280;29800;55.942;37.314;2023-07-09T02:25:00;99173.06;;;14.73;76.81
44138;BME280;29800;55.942;37.314;2023-07-09T02:27:29;99183.00;;;14.74;77.14
44138;BME280;29800;55.942;37.314;2023-07-09T02:29:56;99171.66;;;14.76;77.19
44138;BME280;29800;55.942;37.314;2023-07-09T02:32:24;99176.28;;;14.80;76.99
44138;BME280;29800;55.942;37.314;2023-07-09T02:34:52;99179.03;;;14.80;76.95
44138;BME280;29800;55.942;37.314;2023-07-09T02:37:21;99172.44;;;14.81;76.76
44138;BME280;29800;55.942;37.314;2023-07-09T02:39:48;99170.19;;;14.83;76.39
44138;BME280;29800;55.942;37.314;2023-07-09T02:42:17;99176.50;;;14.89;76.49
44138;BME280;29800;55.942;37.314;2023-07-09T02:44:45;99171.50;;;14.91;76.42
44138;BME280;29800;55.942;37.314;2023-07-09T02:47:13;99167.59;;;14.97;76.49
44138;BME280;29800;55.942;37.314;2023-07-09T02:49:40;99166.16;;;15.00;76.45
44138;BME280;29800;55.942;37.314;2023-07-09T02:52:07;99169.97;;;15.04;76.32
44138;BME280;29800;55.942;37.314;2023-07-09T02:54:34;99167.16;;;15.09;76.20
44138;BME280;29800;55.942;37.314;2023-07-09T02:57:01;99172.59;;;15.14;76.21
44138;BME280;29800;55.942;37.314;2023-07-09T02:59:28;99179.72;;;15.20;76.16
44138;BME280;29800;55.942;37.314;2023-07-09T03:01:56;99172.19;;;15.26;76.06
44138;BME280;29800;55.942;37.314;2023-07-09T03:04:23;99175.41;;;15.33;76.18
44138;BME280;29800;55.942;37.314;2023-07-09T03:06:49;99179.97;;;15.43;76.74
44138;BME280;29800;55.942;37.314;2023-07-09T03:09:16;99177.16;;;15.48;76.78
44138;BME280;29800;55.942;37.314;2023-07-09T03:11:42;99181.47;;;15.54;76.39
44138;BME280;29800;55.942;37.314;2023-07-09T03:14:09;99177.22;;;15.62;76.53
44138;BME280;29800;55.942;37.314;2023-07-09T03:16:35;99168.00;;;15.72;76.63
44138;BME280;29800;55.942;37.314;2023-07-09T03:19:02;99164.06;;;15.78;76.30
44138;BME280;29800;55.942;37.314;2023-07-09T03:21:31;99164.22;;;15.87;76.26
44138;BME280;29800;55.942;37.314;2023-07-09T03:23:58;99167.13;;;15.95;76.37
44138;BME280;29800;55.942;37.314;2023-07-09T03:26:25;99161.94;;;16.08;76.44
44138;BME280;29800;55.942;37.314;2023-07-09T03:28:52;99165.69;;;16.17;76.86
44138;BME280;29800;55.942;37.314;2023-07-09T03:31:19;99162.75;;;16.27;76.38
44138;BME280;29800;55.942;37.314;2023-07-09T03:33:49;99161.44;;;16.39;76.18
44138;BME280;29800;55.942;37.314;2023-07-09T03:36:17;99156.53;;;16.49;76.27
44138;BME280;29800;55.942;37.314;2023-07-09T03:38:44;99150.75;;;16.65;75.83
44138;BME280;29800;55.942;37.314;2023-07-09T03:41:11;99154.00;;;16.86;74.93
44138;BME280;29800;55.942;37.314;2023-07-09T03:43:37;99156.44;;;17.01;74.21
44138;BME280;29800;55.942;37.314;2023-07-09T03:46:03;99153.06;;;17.18;74.13
44138;BME280;29800;55.942;37.314;2023-07-09T03:48:29;99157.97;;;17.35;73.39
44138;BME280;29800;55.942;37.314;2023-07-09T03:50:56;99154.06;;;17.50;73.27
44138;BME280;29800;55.942;37.314;2023-07-09T03:53:22;99164.88;;;17.60;73.12
44138;BME280;29800;55.942;37.314;2023-07-09T03:55:54;99159.94;;;17.71;71.72
44138;BME280;29800;55.942;37.314;2023-07-09T03:58:23;99151.91;;;17.83;70.77
44138;BME280;29800;55.942;37.314;2023-07-09T04:00:50;99152.22;;;17.96;70.19
44138;BME280;29800;55.942;37.314;2023-07-09T04:03:16;99152.75;;;18.07;69.52
44138;BME280;29800;55.942;37.314;2023-07-09T04:05:43;99149.13;;;18.20;69.17
44138;BME280;29800;55.942;37.314;2023-07-09T04:08:09;99152.13;;;18.32;68.89
44138;BME280;29800;55.942;37.314;2023-07-09T04:10:35;99149.31;;;18.46;68.90
44138;BME280;29800;55.942;37.314;2023-07-09T04:13:01;99145.78;;;18.54;68.08
44138;BME280;29800;55.942;37.314;2023-07-09T04:15:29;99143.84;;;18.64;67.22
44138;BME280;29800;55.942;37.314;2023-07-09T04:17:55;99148.47;;;18.77;67.13
44138;BME280;29800;55.942;37.314;2023-07-09T04:20:22;99144.47;;;18.92;66.32
44138;BME280;29800;55.942;37.314;2023-07-09T04:22:49;99138.03;;;19.05;66.10
44138;BME280;29800;55.942;37.314;2023-07-09T04:25:15;99140.03;;;19.22;65.16
44138;BME280;29800;55.942;37.314;2023-07-09T04:27:42;99142.19;;;19.43;64.25
44138;BME280;29800;55.942;37.314;2023-07-09T04:30:14;99136.19;;;19.58;63.56
44138;BME280;29800;55.942;37.314;2023-07-09T04:32:42;99137.34;;;19.66;63.20
44138;BME280;29800;55.942;37.314;2023-07-09T04:35:10;99137.53;;;19.78;62.22
44138;BME280;29800;55.942;37.314;2023-07-09T04:37:38;99143.25;;;19.91;62.09
44138;BME280;29800;55.942;37.314;2023-07-09T04:40:05;99132.78;;;19.96;60.51
44138;BME280;29800;55.942;37.314;2023-07-09T04:42:32;99131.78;;;20.10;60.68
44138;BME280;29800;55.942;37.314;2023-07-09T04:44:59;99127.88;;;20.11;59.41
44138;BME280;29800;55.942;37.314;2023-07-09T04:47:25;99134.41;;;20.24;60.06
44138;BME280;29800;55.942;37.314;2023-07-09T04:49:52;99125.72;;;20.34;59.82
44138;BME280;29800;55.942;37.314;2023-07-09T04:52:18;99120.78;;;20.39;59.25
44138;BME280;29800;55.942;37.314;2023-07-09T04:54:44;99120.94;;;20.52;59.10
44138;BME280;29800;55.942;37.314;2023-07-09T04:57:11;99113.72;;;20.60;58.48
44138;BME280;29800;55.942;37.314;2023-07-09T04:59:38;99113.72;;;20.68;57.40
44138;BME280;29800;55.942;37.314;2023-07-09T05:02:05;99113.34;;;20.79;57.58
44138;BME280;29800;55.942;37.314;2023-07-09T05:04:31;99115.94;;;20.84;55.74
44138;BME280;29800;55.942;37.314;2023-07-09T05:06:58;99108.56;;;20.88;55.53
44138;BME280;29800;55.942;37.314;2023-07-09T05:09:25;99102.81;;;20.93;54.70
44138;BME280;29800;55.942;37.314;2023-07-09T05:11:51;99115.84;;;21.01;55.77
44138;BME280;29800;55.942;37.314;2023-07-09T05:14:17;99101.75;;;21.06;55.51
44138;BME280;29800;55.942;37.314;2023-07-09T05:16:44;99109.56;;;21.13;55.71
44138;BME280;29800;55.942;37.314;2023-07-09T05:19:12;99106.25;;;21.20;55.54
44138;BME280;29800;55.942;37.314;2023-07-09T05:21:38;99101.34;;;21.25;55.11
44138;BME280;29800;55.942;37.314;2023-07-09T05:24:05;99105.19;;;21.33;55.37
44138;BME280;29800;55.942;37.314;2023-07-09T05:26:31;99110.25;;;21.40;54.83
44138;BME280;29800;55.942;37.314;2023-07-09T05:28:57;99110.38;;;21.43;54.89
44138;BME280;29800;55.942;37.314;2023-07-09T05:31:24;99107.44;;;21.48;54.71
44138;BME280;29800;55.942;37.314;2023-07-09T05:33:51;99105.25;;;21.54;54.56
44138;BME280;29800;55.942;37.314;2023-07-09T05:36:17;99106.34;;;21.62;54.40
44138;BME280;29800;55.942;37.314;2023-07-09T05:38:45;99108.25;;;21.70;54.17
44138;BME280;29800;55.942;37.314;2023-07-09T05:41:13;99103.63;;;21.74;53.50
44138;BME280;29800;55.942;37.314;2023-07-09T05:43:43;99104.56;;;21.78;52.33
44138;BME280;29800;55.942;37.314;2023-07-09T05:46:11;99107.16;;;21.83;52.44
44138;BME280;29800;55.942;37.314;2023-07-09T05:48:38;99104.16;;;21.89;52.19
44138;BME280;29800;55.942;37.314;2023-07-09T05:51:04;99096.53;;;21.98;51.91
44138;BME280;29800;55.942;37.314;2023-07-09T05:53:30;99100.41;;;22.06;51.43
44138;BME280;29800;55.942;37.314;2023-07-09T05:55:59;99099.84;;;22.12;51.35
44138;BME280;29800;55.942;37.314;2023-07-09T05:58:25;99096.84;;;22.17;50.60
44138;BME280;29800;55.942;37.314;2023-07-09T06:00:53;99100.56;;;22.21;50.63
44138;BME280;29800;55.942;37.314;2023-07-09T06:03:21;99093.97;;;22.26;50.85
44138;BME280;29800;55.942;37.314;2023-07-09T06:05:47;99090.63;;;22.33;48.92
44138;BME280;29800;55.942;37.314;2023-07-09T06:08:16;99089.25;;;22.39;48.75
44138;BME280;29800;55.942;37.314;2023-07-09T06:10:51;99085.56;;;22.47;49.28
44138;BME280;29800;55.942;37.314;2023-07-09T06:13:17;99088.13;;;22.52;48.24
44138;BME280;29800;55.942;37.314;2023-07-09T06:15:44;99082.66;;;22.56;47.47
44138;BME280;29800;55.942;37.314;2023-07-09T06:18:10;99081.16;;;22.58;46.34
44138;BME280;29800;55.942;37.314;2023-07-09T06:20:38;99086.97;;;22.66;47.32
44138;BME280;29800;55.942;37.314;2023-07-09T06:23:04;99082.69;;;22.68;46.51
44138;BME280;29800;55.942;37.314;2023-07-09T06:25:31;99076.88;;;22.73;46.50
44138;BME280;29800;55.942;37.314;2023-07-09T06:27:57;99087.47;;;22.80;46.81
44138;BME280;29800;55.942;37.314;2023-07-09T06:30:24;99083.75;;;22.88;46.68
44138;BME280;29800;55.942;37.314;2023-07-09T06:32:50;99082.25;;;22.91;47.64
44138;BME280;29800;55.942;37.314;2023-07-09T06:35:17;99070.50;;;22.98;46.04
44138;BME280;29800;55.942;37.314;2023-07-09T06:37:43;99070.84;;;23.08;45.79
44138;BME280;29800;55.942;37.314;2023-07-09T06:40:09;99074.59;;;23.12;47.01
44138;BME280;29800;55.942;37.314;2023-07-09T06:42:36;99070.25;;;23.15;46.85
44138;BME280;29800;55.942;37.314;2023-07-09T06:45:13;99074.25;;;23.14;45.21
44138;BME280;29800;55.942;37.314;2023-07-09T06:47:39;99062.00;;;23.06;45.29
44138;BME280;29800;55.942;37.314;2023-07-09T06:50:06;99073.28;;;22.98;44.79
44138;BME280;29800;55.942;37.314;2023-07-09T06:52:33;99072.00;;;22.95;46.66
44138;BME280;29800;55.942;37.314;2023-07-09T06:54:59;99066.31;;;22.91;47.12
44138;BME280;29800;55.942;37.314;2023-07-09T06:57:25;99064.22;;;22.88;46.50
44138;BME280;29800;55.942;37.314;2023-07-09T06:59:52;99073.28;;;22.85;47.45
44138;BME280;29800;55.942;37.314;2023-07-09T07:02:18;99066.44;;;22.83;45.49
44138;BME280;29800;55.942;37.314;2023-07-09T07:04:44;99068.16;;;22.75;45.29
44138;BME280;29800;55.942;37.314;2023-07-09T07:07:11;99060.94;;;22.74;45.84
44138;BME280;29800;55.942;37.314;2023-07-09T07:09:37;99059.34;;;22.73;45.87
44138;BME280;29800;55.942;37.314;2023-07-09T07:12:03;99052.47;;;22.70;44.14
44138;BME280;29800;55.942;37.314;2023-07-09T07:14:30;99051.66;;;22.70;43.68
44138;BME280;29800;55.942;37.314;2023-07-09T07:16:57;99048.41;;;22.68;44.57
44138;BME280;29800;55.942;37.314;2023-07-09T07:19:23;99055.25;;;22.70;44.90
44138;BME280;29800;55.942;37.314;2023-07-09T07:21:50;99043.31;;;22.70;44.03
44138;BME280;29800;55.942;37.314;2023-07-09T07:24:16;99039.81;;;22.73;42.78
44138;BME280;29800;55.942;37.314;2023-07-09T07:26:42;99041.69;;;22.81;42.50
44138;BME280;29800;55.942;37.314;2023-07-09T07:29:09;99035.63;;;22.91;43.38
44138;BME280;29800;55.942;37.314;2023-07-09T07:31:35;99035.84;;;22.99;43.93
44138;BME280;29800;55.942;37.314;2023-07-09T07:34:01;99041.19;;;23.04;44.81
44138;BME280;29800;55.942;37.314;2023-07-09T07:36:27;99035.13;;;23.02;44.28
44138;BME280;29800;55.942;37.314;2023-07-09T07:38:54;99033.75;;;22.95;43.05
44138;BME280;29800;55.942;37.314;2023-07-09T07:41:20;99039.91;;;22.89;43.22
44138;BME280;29800;55.942;37.314;2023-07-09T07:43:46;99035.03;;;22.98;45.25
44138;BME280;29800;55.942;37.314;2023-07-09T07:46:12;99034.91;;;23.19;44.43
44138;BME280;29800;55.942;37.314;2023-07-09T07:48:39;99030.59;;;23.34;44.31
44138;BME280;29800;55.942;37.314;2023-07-09T07:51:05;99035.53;;;23.53;44.72
44138;BME280;29800;55.942;37.314;2023-07-09T07:53:31;99028.94;;;23.74;43.48
44138;BME280;29800;55.942;37.314;2023-07-09T07:55:58;99017.66;;;23.98;42.21
44138;BME280;29800;55.942;37.314;2023-07-09T07:58:27;99009.75;;;24.16;40.04
44138;BME280;29800;55.942;37.314;2023-07-09T08:00:57;99015.03;;;24.34;40.17
44138;BME280;29800;55.942;37.314;2023-07-09T08:03:24;99017.53;;;24.39;41.23
44138;BME280;29800;55.942;37.314;2023-07-09T08:05:51;99016.25;;;24.36;40.62
44138;BME280;29800;55.942;37.314;2023-07-09T08:08:18;99013.22;;;24.26;40.34
44138;BME280;29800;55.942;37.314;2023-07-09T08:10:45;99011.66;;;24.12;41.45
44138;BME280;29800;55.942;37.314;2023-07-09T08:13:12;99012.78;;;23.95;41.11
44138;BME280;29800;55.942;37.314;2023-07-09T08:15:39;99011.69;;;23.84;40.39
44138;BME280;29800;55.942;37.314;2023-07-09T08:18:05;99012.38;;;23.81;41.95
44138;BME280;29800;55.942;37.314;2023-07-09T08:20:31;99009.72;;;24.00;40.95
44138;BME280;29800;55.942;37.314;2023-07-09T08:22:59;99014.28;;;24.21;42.75
44138;BME280;29800;55.942;37.314;2023-07-09T08:25:26;99000.84;;;24.43;40.39
44138;BME280;29800;55.942;37.314;2023-07-09T08:27:52;99001.41;;;24.64;40.27
44138;BME280;29800;55.942;37.314;2023-07-09T08:30:19;98996.84;;;24.91;39.10
44138;BME280;29800;55.942;37.314;2023-07-09T08:32:45;98998.44;;;25.08;40.95
44138;BME280;29800;55.942;37.314;2023-07-09T08:35:11;99001.47;;;25.19;40.68
44138;BME280;29800;55.942;37.314;2023-07-09T08:37:38;98993.69;;;25.28;38.82
44138;BME280;29800;55.942;37.314;2023-07-09T08:40:05;98999.13;;;25.21;37.85
44138;BME280;29800;55.942;37.314;2023-07-09T08:42:46;98993.44;;;25.18;38.94
44138;BME280;29800;55.942;37.314;2023-07-09T08:48:27;98994.50;;;24.93;39.82
44138;BME280;29800;55.942;37.314;2023-07-09T08:50:59;98988.13;;;24.77;39.60
44138;BME280;29800;55.942;37.314;2023-07-09T08:53:36;98984.69;;;24.84;39.17
44138;BME280;29800;55.942;37.314;2023-07-09T08:56:09;98978.63;;;24.98;39.36
44138;BME280;29800;55.942;37.314;2023-07-09T08:58:36;98985.34;;;25.12;38.65
44138;BME280;29800;55.942;37.314;2023-07-09T09:01:06;98987.84;;;25.18;40.08
44138;BME280;29800;55.942;37.314;2023-07-09T09:06:17;98983.72;;;25.11;39.74
44138;BME280;29800;55.942;37.314;2023-07-09T09:08:55;98973.25;;;25.08;39.62
44138;BME280;29800;55.942;37.314;2023-07-09T09:11:34;98976.75;;;25.05;37.66
44138;BME280;29800;55.942;37.314;2023-07-09T09:16:57;98961.47;;;25.19;39.62
44138;BME280;29800;55.942;37.314;2023-07-09T09:19:36;98964.00;;;25.24;39.70
44138;BME280;29800;55.942;37.314;2023-07-09T09:22:17;98969.88;;;25.19;39.43
44138;BME280;29800;55.942;37.314;2023-07-09T09:24:58;98964.47;;;25.10;40.69
44138;BME280;29800;55.942;37.314;2023-07-09T09:27:29;98959.81;;;24.98;39.96
44138;BME280;29800;55.942;37.314;2023-07-09T09:29:56;98955.25;;;24.90;39.41
44138;BME280;29800;55.942;37.314;2023-07-09T09:32:29;98951.09;;;24.84;39.83
44138;BME280;29800;55.942;37.314;2023-07-09T09:34:57;98956.69;;;24.84;40.82
44138;BME280;29800;55.942;37.314;2023-07-09T09:37:29;98954.53;;;24.93;40.16
44138;BME280;29800;55.942;37.314;2023-07-09T09:39:56;98951.06;;;25.00;40.24
44138;BME280;29800;55.942;37.314;2023-07-09T09:42:24;98951.09;;;25.19;40.82
44138;BME280;29800;55.942;37.314;2023-07-09T09:44:54;98954.84;;;25.46;39.25
44138;BME280;29800;55.942;37.314;2023-07-09T09:47:23;98951.13;;;25.58;39.04
44138;BME280;29800;55.942;37.314;2023-07-09T09:49:52;98953.56;;;25.60;37.97
44138;BME280;29800;55.942;37.314;2023-07-09T09:52:19;98953.25;;;25.45;38.70
44138;BME280;29800;55.942;37.314;2023-07-09T09:54:54;98955.31;;;25.29;39.14
44138;BME280;29800;55.942;37.314;2023-07-09T09:57:24;98954.00;;;25.07;38.38
44138;BME280;29800;55.942;37.314;2023-07-09T09:59:54;98958.91;;;24.94;38.67
44138;BME280;29800;55.942;37.314;2023-07-09T10:02:23;98950.66;;;24.82;40.03
44138;BME280;29800;55.942;37.314;2023-07-09T10:04:50;98952.47;;;24.74;39.49
44138;BME280;29800;55.942;37.314;2023-07-09T10:07:41;98951.31;;;24.75;41.47
44138;BME280;29800;55.942;37.314;2023-07-09T10:10:20;98943.22;;;24.70;40.07
44138;BME280;29800;55.942;37.314;2023-07-09T10:19:01;98936.97;;;24.76;40.68
44138;BME280;29800;55.942;37.314;2023-07-09T10:21:35;98926.81;;;24.88;39.70
44138;BME280;29800;55.942;37.314;2023-07-09T10:27:00;98942.00;;;25.06;38.92
44138;BME280;29800;55.942;37.314;2023-07-09T10:35:04;98941.19;;;24.86;40.91
44138;BME280;29800;55.942;37.314;2023-07-09T10:40:11;98934.44;;;24.71;41.21
44138;BME280;29800;55.942;37.314;2023-07-09T10:42:51;98932.38;;;24.68;39.69
44138;BME280;29800;55.942;37.314;2023-07-09T10:45:23;98927.78;;;24.60;41.21
44138;BME280;29800;55.942;37.314;2023-07-09T10:48:07;98931.75;;;24.59;40.81
44138;BME280;29800;55.942;37.314;2023-07-09T10:50:41;98920.94;;;24.57;40.84
44138;BME280;29800;55.942;37.314;2023-07-09T10:53:16;98918.81;;;24.54;40.45
44138;BME280;29800;55.942;37.314;2023-07-09T10:55:55;98917.78;;;24.59;41.12
44138;BME280;29800;55.942;37.314;2023-07-09T10:58:39;98924.44;;;24.70;39.65
44138;BME280;29800;55.942;37.314;2023-07-09T11:01:12;98916.78;;;24.87;40.71
44138;BME280;29800;55.942;37.314;2023-07-09T11:03:44;98917.84;;;24.98;40.17
44138;BME280;29800;55.942;37.314;2023-07-09T11:06:20;98919.13;;;25.01;40.32
44138;BME280;29800;55.942;37.314;2023-07-09T11:08:51;98916.56;;;24.95;40.37
44138;BME280;29800;55.942;37.314;2023-07-09T11:11:28;98915.16;;;24.86;40.55
44138;BME280;29800;55.942;37.314;2023-07-09T11:14:01;98919.81;;;24.78;40.94
44138;BME280;29800;55.942;37.314;2023-07-09T11:16:34;98923.25;;;24.71;41.14
44138;BME280;29800;55.942;37.314;2023-07-09T11:19:05;98913.09;;;24.63;42.16
44138;BME280;29800;55.942;37.314;2023-07-09T11:21:44;98916.16;;;24.58;41.21
44138;BME280;29800;55.942;37.314;2023-07-09T11:24:30;98906.59;;;24.59;41.65
44138;BME280;29800;55.942;37.314;2023-07-09T11:26:57;98904.75;;;24.51;40.92
44138;BME280;29800;55.942;37.314;2023-07-09T11:29:26;98911.91;;;24.48;40.32
44138;BME280;29800;55.942;37.314;2023-07-09T11:31:52;98900.25;;;24.46;41.18
44138;BME280;29800;55.942;37.314;2023-07-09T11:34:20;98905.50;;;24.48;40.60
44138;BME280;29800;55.942;37.314;2023-07-09T11:39:31;98906.91;;;24.73;42.60
44138;BME280;29800;55.942;37.314;2023-07-09T11:42:28;98900.00;;;24.87;42.03
44138;BME280;29800;55.942;37.314;2023-07-09T11:45:16;98900.81;;;24.87;42.25
44138;BME280;29800;55.942;37.314;2023-07-09T11:47:47;98902.03;;;24.70;40.03
44138;BME280;29800;55.942;37.314;2023-07-09T11:50:28;98903.22;;;24.69;42.15
44138;BME280;29800;55.942;37.314;2023-07-09T11:53:28;98898.72;;;24.65;40.86
44138;BME280;29800;55.942;37.314;2023-07-09T11:55:58;98893.56;;;24.51;42.00
44138;BME280;29800;55.942;37.314;2023-07-09T11:58:24;98898.66;;;24.45;41.75
44138;BME280;29800;55.942;37.314;2023-07-09T12:00:52;98893.78;;;24.42;41.38
44138;BME280;29800;55.942;37.314;2023-07-09T12:03:24;98891.78;;;24.43;42.11
44138;BME280;29800;55.942;37.314;2023-07-09T12:05:54;98891.88;;;24.46;41.59
44138;BME280;29800;55.942;37.314;2023-07-09T12:08:27;98889.53;;;24.48;42.53
44138;BME280;29800;55.942;37.314;2023-07-09T12:10:55;98891.88;;;24.46;42.40
44138;BME280;29800;55.942;37.314;2023-07-09T12:13:21;98888.06;;;24.54;41.75
44138;BME280;29800;55.942;37.314;2023-07-09T12:15:47;98883.63;;;24.69;40.03
44138;BME280;29800;55.942;37.314;2023-07-09T12:18:15;98880.84;;;24.89;40.55
44138;BME280;29800;55.942;37.314;2023-07-09T12:20:47;98873.31;;;25.09;41.85
44138;BME280;29800;55.942;37.314;2023-07-09T12:23:27;98878.72;;;25.21;39.53
44138;BME280;29800;55.942;37.314;2023-07-09T12:25:54;98881.53;;;25.21;40.66
44138;BME280;29800;55.942;37.314;2023-07-09T12:28:21;98878.09;;;25.28;41.49
44138;BME280;29800;55.942;37.314;2023-07-09T12:30:50;98873.88;;;25.38;40.19
44138;BME280;29800;55.942;37.314;2023-07-09T12:33:21;98873.72;;;25.50;40.83
44138;BME280;29800;55.942;37.314;2023-07-09T12:35:59;98876.72;;;25.61;40.86
44138;BME280;29800;55.942;37.314;2023-07-09T12:38:38;98876.13;;;25.71;40.01
44138;BME280;29800;55.942;37.314;2023-07-09T12:41:59;98876.41;;;25.66;39.36
44138;BME280;29800;55.942;37.314;2023-07-09T12:44:00;98868.94;;;25.50;39.62
44138;BME280;29800;55.942;37.314;2023-07-09T12:46:27;98866.88;;;25.47;38.63
44138;BME280;29800;55.942;37.314;2023-07-09T12:48:55;98870.09;;;25.49;38.99
44138;BME280;29800;55.942;37.314;2023-07-09T12:51:25;98867.81;;;25.55;37.23
44138;BME280;29800;55.942;37.314;2023-07-09T12:54:21;98872.81;;;25.65;38.94
44138;BME280;29800;55.942;37.314;2023-07-09T12:56:53;98860.97;;;25.53;38.04
44138;BME280;29800;55.942;37.314;2023-07-09T13:02:26;98864.06;;;25.47;39.94
44138;BME280;29800;55.942;37.314;2023-07-09T13:05:05;98875.50;;;25.39;39.10
44138;BME280;29800;55.942;37.314;2023-07-09T13:07:36;98872.50;;;25.28;40.50
44138;BME280;29800;55.942;37.314;2023-07-09T13:10:23;98865.28;;;25.27;39.98
44138;BME280;29800;55.942;37.314;2023-07-09T13:12:54;98867.78;;;25.12;40.71
44138;BME280;29800;55.942;37.314;2023-07-09T13:15:29;98862.09;;;25.09;40.06
44138;BME280;29800;55.942;37.314;2023-07-09T13:17:58;98862.78;;;25.02;39.17
44138;BME280;29800;55.942;37.314;2023-07-09T13:20:24;98859.38;;;24.93;41.37
44138;BME280;29800;55.942;37.314;2023-07-09T13:22:51;98857.59;;;24.85;40.24
44138;BME280;29800;55.942;37.314;2023-07-09T13:25:17;98859.66;;;24.88;40.34
44138;BME280;29800;55.942;37.314;2023-07-09T13:27:45;98858.47;;;24.89;40.75
44138;BME280;29800;55.942;37.314;2023-07-09T13:30:12;98841.69;;;24.89;40.74
44138;BME280;29800;55.942;37.314;2023-07-09T13:32:38;98845.75;;;24.91;41.50
44138;BME280;29800;55.942;37.314;2023-07-09T13:35:23;98846.72;;;24.99;41.52
44138;BME280;29800;55.942;37.314;2023-07-09T13:37:49;98837.84;;;24.97;41.63